createdAt,value
2023-02-01T00:01:06.847Z,101920.25
2023-02-01T00:03:34.039Z,101908.78
2023-02-01T00:06:02.274Z,101906.06
2023-02-01T00:08:29.656Z,101898.97
2023-02-01T00:11:13.226Z,101897.97
2023-02-01T00:13:42.729Z,101897.03
2023-02-01T00:16:23.335Z,101894.31
2023-02-01T00:18:52.737Z,101891.50
2023-02-01T00:21:21.831Z,101891.47
2023-02-01T00:23:49.563Z,101890.53
2023-02-01T00:26:42.241Z,101868.75
2023-02-01T00:29:18.397Z,101858.31
2023-02-01T00:31:46.128Z,101871.34
2023-02-01T00:34:17.008Z,101858.31
2023-02-01T00:36:45.829Z,101871.28
2023-02-01T00:39:13.750Z,101876.44
2023-02-01T00:41:42.343Z,101866.78
2023-02-01T00:44:09.616Z,101867.56
2023-02-01T00:46:37.294Z,101854.31
2023-02-01T00:49:04.919Z,101848.03
2023-02-01T00:51:32.553Z,101847.66
2023-02-01T00:53:59.593Z,101854.44
2023-02-01T00:56:28.519Z,101865.59
2023-02-01T00:58:56.233Z,101862.88
2023-02-01T01:01:28.445Z,101872.38
2023-02-01T01:03:58.645Z,101867.91
2023-02-01T01:06:34.493Z,101874.78
2023-02-01T01:09:07.563Z,101866.91
2023-02-01T01:11:38.553Z,101872.06
2023-02-01T01:14:07.771Z,101872.91
2023-02-01T01:16:36.830Z,101884.13
2023-02-01T01:19:06.617Z,101876.31
2023-02-01T01:21:34.302Z,101883.13
2023-02-01T01:24:01.667Z,101888.34
2023-02-01T01:26:30.995Z,101878.81
2023-02-01T01:29:00.142Z,101872.81
2023-02-01T01:31:28.168Z,101869.44
2023-02-01T01:33:58.190Z,101871.19
2023-02-01T01:36:27.269Z,101869.41
2023-02-01T01:38:54.624Z,101865.75
2023-02-01T01:41:32.482Z,101876.09
2023-02-01T01:44:08.941Z,101871.63
2023-02-01T01:46:39.356Z,101870.69
2023-02-01T01:49:20.712Z,101875.84
2023-02-01T01:51:56.012Z,101867.97
2023-02-01T01:54:24.764Z,101879.19
2023-02-01T01:57:01.922Z,101887.88
2023-02-01T01:59:31.019Z,101880.81
2023-02-01T02:01:58.070Z,101882.47
2023-02-01T02:04:26.520Z,101880.63
2023-02-01T02:07:04.927Z,101886.59
2023-02-01T02:09:32.577Z,101890.03
2023-02-01T02:11:59.755Z,101880.31
2023-02-01T02:14:27.765Z,101878.56
2023-02-01T02:17:39.608Z,101868.13
2023-02-01T02:20:42.733Z,101871.56
2023-02-01T02:23:57.194Z,101862.84
2023-02-01T02:26:35.552Z,101862.00
2023-02-01T02:29:39.558Z,101857.75
2023-02-01T02:32:55.492Z,101847.38
2023-02-01T02:35:57.603Z,101839.75
2023-02-01T02:38:53.764Z,101830.31
2023-02-01T02:42:28.981Z,101833.03
2023-02-01T02:45:40.141Z,101833.13
2023-02-01T02:48:14.437Z,101836.59
2023-02-01T02:51:29.666Z,101825.28
2023-02-01T02:54:31.374Z,101832.22
2023-02-01T02:57:19.273Z,101829.53
2023-02-01T03:00:07.339Z,101830.50
2023-02-01T03:02:54.307Z,101829.66
2023-02-01T03:05:22.043Z,101828.88
2023-02-01T03:08:11.107Z,101822.88
2023-02-01T03:11:11.305Z,101823.88
2023-02-01T03:13:58.554Z,101824.66
2023-02-01T03:16:35.480Z,101815.91
2023-02-01T03:19:12.842Z,101808.97
2023-02-01T03:21:50.768Z,101813.28
2023-02-01T03:25:17.668Z,101816.72
2023-02-01T03:27:58.746Z,101816.72
2023-02-01T03:30:43.293Z,101821.94
2023-02-01T03:33:22.848Z,101818.50
2023-02-01T03:36:15.279Z,101817.63
2023-02-01T03:39:00.597Z,101827.22
2023-02-01T03:41:36.639Z,101824.66
2023-02-01T03:44:25.947Z,101818.81
2023-02-01T03:47:21.265Z,101823.31
2023-02-01T03:49:57.162Z,101825.09
2023-02-01T03:52:36.378Z,101818.09
2023-02-01T03:55:04.853Z,101822.34
2023-02-01T03:57:38.340Z,101823.09
2023-02-01T04:00:17.912Z,101824.66
2023-02-01T04:02:45.130Z,101816.78
2023-02-01T04:05:12.887Z,101815.84
2023-02-01T04:07:40.428Z,101820.97
2023-02-01T04:10:09.136Z,101808.59
2023-02-01T04:12:36.177Z,101812.88
2023-02-01T04:15:04.466Z,101813.66
2023-02-01T04:17:32.814Z,101810.91
2023-02-01T04:19:59.925Z,101803.88
2023-02-01T04:22:27.169Z,101802.03
2023-02-01T04:24:54.274Z,101793.25
2023-02-01T04:27:21.398Z,101783.69
2023-02-01T04:29:50.701Z,101782.66
2023-02-01T04:32:19.106Z,101790.47
2023-02-01T04:34:46.388Z,101802.56
2023-02-01T04:37:13.592Z,101804.28
2023-02-01T04:39:40.834Z,101799.81
2023-02-01T04:42:08.044Z,101793.72
2023-02-01T04:44:35.297Z,101797.16
2023-02-01T04:47:02.225Z,101804.09
2023-02-01T04:49:29.422Z,101806.81
2023-02-01T04:51:56.702Z,101806.69
2023-02-01T04:54:23.772Z,101810.13
2023-02-01T04:56:50.911Z,101810.97
2023-02-01T04:59:18.056Z,101814.41
2023-02-01T05:01:46.883Z,101813.44
2023-02-01T05:04:15.178Z,101808.16
2023-02-01T05:06:42.481Z,101815.03
2023-02-01T05:09:09.929Z,101821.97
2023-02-01T05:11:56.039Z,101827.25
2023-02-01T05:14:23.155Z,101828.97
2023-02-01T05:16:50.196Z,101819.38
2023-02-01T05:19:17.469Z,101817.66
2023-02-01T05:21:44.538Z,101817.69
2023-02-01T05:24:13.767Z,101821.16
2023-02-01T05:26:42.310Z,101815.94
2023-02-01T05:29:10.621Z,101816.72
2023-02-01T05:31:38.814Z,101809.78
2023-02-01T05:34:07.660Z,101808.06
2023-02-01T05:36:34.886Z,101795.91
2023-02-01T05:39:02.173Z,101792.66
2023-02-01T05:41:29.554Z,101789.34
2023-02-01T05:43:56.666Z,101799.06
2023-02-01T05:46:23.985Z,101793.13
2023-02-01T05:48:51.401Z,101808.00
2023-02-01T05:51:18.449Z,101805.66
2023-02-01T05:53:45.671Z,101806.63
2023-02-01T05:56:12.690Z,101812.94
2023-02-01T05:58:39.919Z,101813.03
2023-02-01T06:01:07.113Z,101818.44
2023-02-01T06:03:34.291Z,101815.06
2023-02-01T06:06:03.579Z,101823.91
2023-02-01T06:08:31.155Z,101823.97
2023-02-01T06:11:05.096Z,101815.38
2023-02-01T06:13:35.923Z,101824.91
2023-02-01T06:16:08.397Z,101817.13
2023-02-01T06:18:36.601Z,101813.63
2023-02-01T06:21:03.817Z,101818.75
2023-02-01T06:23:37.014Z,101810.94
2023-02-01T06:26:08.907Z,101827.56
2023-02-01T06:28:36.263Z,101822.44
2023-02-01T06:31:08.360Z,101827.75
2023-02-01T06:33:37.083Z,101820.88
2023-02-01T06:36:08.229Z,101827.13
2023-02-01T06:38:36.139Z,101822.69
2023-02-01T06:41:04.300Z,101829.53
2023-02-01T06:43:33.666Z,101839.88
2023-02-01T06:46:11.068Z,101829.28
2023-02-01T06:48:38.395Z,101837.13
2023-02-01T06:51:05.745Z,101841.50
2023-02-01T06:53:33.040Z,101838.16
2023-02-01T06:56:03.635Z,101840.91
2023-02-01T06:58:35.061Z,101840.16
2023-02-01T07:01:10.617Z,101841.06
2023-02-01T07:03:38.984Z,101840.22
2023-02-01T07:06:07.820Z,101842.00
2023-02-01T07:08:38.062Z,101842.88
2023-02-01T07:11:08.605Z,101851.50
2023-02-01T07:13:36.270Z,101836.78
2023-02-01T07:16:06.830Z,101840.06
2023-02-01T07:18:34.548Z,101839.09
2023-02-01T07:21:02.083Z,101838.97
2023-02-01T07:23:29.557Z,101834.50
2023-02-01T07:26:00.004Z,101833.69
2023-02-01T07:28:29.475Z,101838.00
2023-02-01T07:30:56.495Z,101827.53
2023-02-01T07:33:27.943Z,101840.56
2023-02-01T07:35:55.514Z,101841.28
2023-02-01T07:38:24.863Z,101840.31
2023-02-01T07:40:52.111Z,101839.44
2023-02-01T07:43:19.255Z,101841.94
2023-02-01T07:45:56.182Z,101840.25
2023-02-01T07:48:25.407Z,101853.34
2023-02-01T07:51:09.511Z,101846.56
2023-02-01T07:53:37.642Z,101844.91
2023-02-01T07:56:10.349Z,101854.53
2023-02-01T07:58:37.648Z,101857.25
2023-02-01T08:01:25.227Z,101850.31
2023-02-01T08:04:00.373Z,101850.72
2023-02-01T08:06:30.551Z,101853.56
2023-02-01T08:08:58.813Z,101852.88
2023-02-01T08:11:27.535Z,101857.34
2023-02-01T08:13:55.540Z,101867.09
2023-02-01T08:16:24.368Z,101873.53
2023-02-01T08:18:52.540Z,101874.03
2023-02-01T08:21:37.366Z,101877.84
2023-02-01T08:24:07.642Z,101874.63
2023-02-01T08:26:35.084Z,101879.84
2023-02-01T08:29:05.983Z,101868.63
2023-02-01T08:31:33.548Z,101874.03
2023-02-01T08:34:05.263Z,101875.00
2023-02-01T08:36:33.872Z,101874.34
2023-02-01T08:39:02.123Z,101882.47
2023-02-01T08:41:31.361Z,101884.56
2023-02-01T08:43:59.074Z,101879.59
2023-02-01T08:46:26.523Z,101874.69
2023-02-01T08:48:54.303Z,101873.19
2023-02-01T08:51:23.888Z,101868.19
2023-02-01T08:53:52.298Z,101872.75
2023-02-01T08:56:21.805Z,101868.56
2023-02-01T08:58:49.202Z,101870.53
2023-02-01T09:01:18.048Z,101868.09
2023-02-01T09:03:45.801Z,101865.69
2023-02-01T09:06:16.041Z,101854.50
2023-02-01T09:08:44.243Z,101851.94
2023-02-01T09:11:20.283Z,101849.38
2023-02-01T09:13:49.089Z,101855.56
2023-02-01T09:16:16.859Z,101842.59
2023-02-01T09:18:55.977Z,101833.88
2023-02-01T09:21:29.622Z,101831.50
2023-02-01T09:23:57.022Z,101838.88
2023-02-01T09:26:32.257Z,101833.16
2023-02-01T09:29:01.502Z,101828.97
2023-02-01T09:31:28.616Z,101834.59
2023-02-01T09:33:56.223Z,101829.44
2023-02-01T09:36:24.606Z,101829.53
2023-02-01T09:38:53.324Z,101818.25
2023-02-01T09:41:23.428Z,101822.81
2023-02-01T09:43:59.494Z,101824.50
2023-02-01T09:46:31.108Z,101833.66
2023-02-01T09:49:05.988Z,101839.88
2023-02-01T09:51:39.036Z,101840.88
2023-02-01T09:54:21.246Z,101842.94
2023-02-01T09:56:59.896Z,101845.72
2023-02-01T09:59:39.182Z,101843.22
2023-02-01T10:02:21.526Z,101836.34
2023-02-01T10:04:49.814Z,101828.50
2023-02-01T10:08:23.049Z,101826.09
2023-02-01T10:10:51.271Z,101813.13
2023-02-01T10:13:24.197Z,101824.84
2023-02-01T10:16:02.217Z,101834.91
2023-02-01T10:18:58.335Z,101830.22
2023-02-01T10:22:01.495Z,101832.38
2023-02-01T10:25:00.774Z,101843.53
2023-02-01T10:27:36.721Z,101849.34
2023-02-01T10:30:27.914Z,101862.09
2023-02-01T10:33:33.412Z,101860.50
2023-02-01T10:36:15.002Z,101875.41
2023-02-01T10:38:43.992Z,101884.44
2023-02-01T10:41:20.801Z,101867.88
2023-02-01T10:43:54.355Z,101863.34
2023-02-01T10:46:24.213Z,101865.91
2023-02-01T10:48:55.510Z,101875.47
2023-02-01T10:52:01.199Z,101870.81
2023-02-01T10:54:40.014Z,101867.47
2023-02-01T10:57:33.638Z,101858.19
2023-02-01T11:00:20.472Z,101856.53
2023-02-01T11:02:51.195Z,101865.25
2023-02-01T11:05:19.872Z,101851.34
2023-02-01T11:07:55.823Z,101861.13
2023-02-01T11:10:42.714Z,101844.44
2023-02-01T11:13:20.008Z,101839.91
2023-02-01T11:15:56.242Z,101833.72
2023-02-01T11:18:33.580Z,101823.88
2023-02-01T11:21:01.968Z,101832.47
2023-02-01T11:23:32.263Z,101821.75
2023-02-01T11:26:08.738Z,101818.09
2023-02-01T11:28:39.735Z,101817.03
2023-02-01T11:31:14.031Z,101813.41
2023-02-01T11:33:55.200Z,101806.41
2023-02-01T11:36:30.639Z,101814.13
2023-02-01T11:39:14.832Z,101812.41
2023-02-01T11:42:16.832Z,101803.97
2023-02-01T11:44:48.504Z,101795.34
2023-02-01T11:47:30.085Z,101815.59
2023-02-01T11:50:06.023Z,101815.59
2023-02-01T11:53:07.090Z,101819.91
2023-02-01T11:56:18.006Z,101800.69
2023-02-01T11:59:14.323Z,101803.97
2023-02-01T12:02:09.702Z,101789.06
2023-02-01T12:05:07.275Z,101795.22
2023-02-01T12:07:52.496Z,101796.16
2023-02-01T12:10:52.414Z,101797.91
2023-02-01T12:13:57.458Z,101792.44
2023-02-01T12:16:52.948Z,101790.50
2023-02-01T12:20:02.354Z,101819.16
2023-02-01T12:23:00.643Z,101797.91
2023-02-01T12:25:54.996Z,101789.97
2023-02-01T12:28:43.293Z,101774.19
2023-02-01T12:31:27.695Z,101789.91
2023-02-01T12:34:30.853Z,101802.94
2023-02-01T12:37:28.193Z,101787.22
2023-02-01T12:40:04.825Z,101788.34
2023-02-01T12:42:44.878Z,101791.03
2023-02-01T12:45:44.340Z,101776.25
2023-02-01T12:49:02.978Z,101783.19
2023-02-01T12:51:37.833Z,101784.88
2023-02-01T12:54:24.771Z,101781.53
2023-02-01T12:57:04.156Z,101779.16
2023-02-01T12:59:55.449Z,101784.56
2023-02-01T13:02:45.833Z,101768.00
2023-02-01T13:05:28.914Z,101782.97
2023-02-01T13:08:18.492Z,101762.78
2023-02-01T13:10:55.066Z,101756.59
2023-02-01T13:13:53.702Z,101774.16
2023-02-01T13:16:31.667Z,101758.22
2023-02-01T13:19:11.714Z,101764.31
2023-02-01T13:21:46.810Z,101763.47
2023-02-01T13:24:44.060Z,101778.47
2023-02-01T13:27:17.042Z,101760.97
2023-02-01T13:30:05.270Z,101758.34
2023-02-01T13:33:54.404Z,101757.38
2023-02-01T13:36:24.013Z,101757.69
2023-02-01T13:39:05.959Z,101749.00
2023-02-01T13:41:51.629Z,101752.53
2023-02-01T13:44:40.047Z,101757.09
2023-02-01T13:47:28.196Z,101758.13
2023-02-01T13:50:01.704Z,101776.00
2023-02-01T13:52:53.040Z,101772.38
2023-02-01T13:55:23.398Z,101764.34
2023-02-01T13:58:23.433Z,101765.09
2023-02-01T14:00:54.319Z,101772.88
2023-02-01T14:03:43.170Z,101757.94
2023-02-01T14:06:28.504Z,101772.84
2023-02-01T14:09:20.508Z,101770.09
2023-02-01T14:11:58.728Z,101771.78
2023-02-01T14:14:39.309Z,101768.16
2023-02-01T14:17:12.380Z,101788.31
2023-02-01T14:19:39.616Z,101787.25
2023-02-01T14:22:15.872Z,101787.19
2023-02-01T14:24:52.859Z,101793.31
2023-02-01T14:27:24.119Z,101775.78
2023-02-01T14:30:08.735Z,101796.91
2023-02-01T14:32:41.714Z,101802.09
2023-02-01T14:35:28.078Z,101774.84
2023-02-01T14:38:05.504Z,101784.50
2023-02-01T14:40:33.063Z,101777.41
2023-02-01T14:43:00.286Z,101780.81
2023-02-01T14:45:28.503Z,101784.25
2023-02-01T14:48:07.981Z,101778.00
2023-02-01T14:50:43.577Z,101779.66
2023-02-01T14:53:13.818Z,101777.84
2023-02-01T14:55:56.747Z,101790.00
2023-02-01T14:58:53.933Z,101780.31
2023-02-01T15:01:34.709Z,101788.91
2023-02-01T15:04:19.384Z,101789.63
2023-02-01T15:06:58.510Z,101785.94
2023-02-01T15:09:33.556Z,101798.09
2023-02-01T15:12:21.363Z,101798.06
2023-02-01T15:15:06.667Z,101791.88
2023-02-01T15:17:35.369Z,101791.84
2023-02-01T15:20:34.940Z,101790.09
2023-02-01T15:23:18.127Z,101795.28
2023-02-01T15:25:47.537Z,101794.34
2023-02-01T15:28:17.245Z,101801.34
2023-02-01T15:31:06.732Z,101790.78
2023-02-01T15:33:34.330Z,101802.94
2023-02-01T15:36:15.067Z,101808.16
2023-02-01T15:38:44.411Z,101815.09
2023-02-01T15:41:31.278Z,101813.38
2023-02-01T15:44:02.441Z,101822.03
2023-02-01T15:46:42.698Z,101833.38
2023-02-01T15:49:38.628Z,101805.31
2023-02-01T15:52:36.300Z,101808.72
2023-02-01T15:55:27.132Z,101812.19
2023-02-01T15:57:54.501Z,101799.84
2023-02-01T16:00:44.271Z,101802.41
2023-02-01T16:03:38.031Z,101809.38
2023-02-01T16:06:26.975Z,101797.94
2023-02-01T16:08:58.978Z,101812.72
2023-02-01T16:11:41.567Z,101809.16
2023-02-01T16:14:08.576Z,101809.09
2023-02-01T16:16:35.591Z,101811.63
2023-02-01T16:19:02.731Z,101810.75
2023-02-01T16:21:29.959Z,101813.31
2023-02-01T16:23:57.103Z,101813.31
2023-02-01T16:26:24.251Z,101814.16
2023-02-01T16:28:51.571Z,101815.09
2023-02-01T16:31:25.337Z,101815.09
2023-02-01T16:33:53.178Z,101801.09
2023-02-01T16:36:21.644Z,101823.84
2023-02-01T16:38:50.533Z,101826.47
2023-02-01T16:41:20.488Z,101821.25
2023-02-01T16:43:52.713Z,101826.50
2023-02-01T16:46:25.505Z,101818.63
2023-02-01T16:49:24.335Z,101833.50
2023-02-01T16:51:56.522Z,101846.69
2023-02-01T16:54:24.052Z,101842.31
2023-02-01T16:56:51.359Z,101844.94
2023-02-01T16:59:18.515Z,101840.56
2023-02-01T17:01:45.628Z,101844.94
2023-02-01T17:04:13.126Z,101840.56
2023-02-01T17:06:40.620Z,101852.81
2023-02-01T17:09:08.245Z,101862.47
2023-02-01T17:11:35.710Z,101867.69
2023-02-01T17:14:18.983Z,101837.06
2023-02-01T17:16:49.323Z,101853.72
2023-02-01T17:19:24.486Z,101851.06
2023-02-01T17:21:56.723Z,101855.44
2023-02-01T17:24:42.453Z,101865.91
2023-02-01T17:27:16.184Z,101860.59
2023-02-01T17:29:43.977Z,101852.69
2023-02-01T17:32:23.831Z,101859.69
2023-02-01T17:34:51.324Z,101871.03
2023-02-01T17:37:32.436Z,101860.50
2023-02-01T17:40:01.377Z,101873.63
2023-02-01T17:42:30.734Z,101868.34
2023-02-01T17:45:29.124Z,101885.81
2023-02-01T17:47:56.324Z,101882.34
2023-02-01T17:50:26.823Z,101884.97
2023-02-01T17:52:54.223Z,101872.72
2023-02-01T17:55:25.148Z,101893.63
2023-02-01T17:57:53.054Z,101891.16
2023-02-01T18:00:21.769Z,101894.72
2023-02-01T18:02:49.649Z,101887.72
2023-02-01T18:05:31.685Z,101904.41
2023-02-01T18:07:59.015Z,101900.03
2023-02-01T18:10:26.116Z,101868.53
2023-02-01T18:12:53.427Z,101889.56
2023-02-01T18:15:26.632Z,101902.75
2023-02-01T18:17:56.172Z,101900.13
2023-02-01T18:20:26.797Z,101881.75
2023-02-01T18:22:54.111Z,101887.00
2023-02-01T18:25:30.517Z,101887.03
2023-02-01T18:27:58.700Z,101888.78
2023-02-01T18:30:31.655Z,101884.38
2023-02-01T18:32:58.995Z,101903.72
2023-02-01T18:35:32.848Z,101882.78
2023-02-01T18:38:00.013Z,101885.47
2023-02-01T18:40:39.454Z,101885.50
2023-02-01T18:43:06.797Z,101881.97
2023-02-01T18:45:42.622Z,101887.31
2023-02-01T18:48:12.625Z,101884.63
2023-02-01T18:50:42.978Z,101884.63
2023-02-01T18:53:27.120Z,101883.75
2023-02-01T18:55:56.755Z,101889.81
2023-02-01T18:58:27.873Z,101889.88
2023-02-01T19:00:58.601Z,101875.00
2023-02-01T19:03:27.375Z,101887.25
2023-02-01T19:05:58.266Z,101885.63
2023-02-01T19:08:26.035Z,101875.09
2023-02-01T19:10:54.382Z,101881.97
2023-02-01T19:13:24.656Z,101887.41
2023-02-01T19:15:52.333Z,101883.06
2023-02-01T19:18:20.448Z,101890.03
2023-02-01T19:20:51.449Z,101872.56
2023-02-01T19:23:19.334Z,101883.06
2023-02-01T19:25:48.582Z,101876.03
2023-02-01T19:28:16.665Z,101882.16
2023-02-01T19:30:44.881Z,101888.31
2023-02-01T19:33:12.731Z,101882.13
2023-02-01T19:35:40.244Z,101883.00
2023-02-01T19:38:07.498Z,101892.59
2023-02-01T19:40:34.602Z,101879.47
2023-02-01T19:43:01.785Z,101877.72
2023-02-01T19:45:28.935Z,101881.97
2023-02-01T19:47:56.254Z,101881.94
2023-02-01T19:50:23.753Z,101887.34
2023-02-01T19:52:51.232Z,101882.97
2023-02-01T19:55:27.075Z,101888.28
2023-02-01T19:57:57.448Z,101892.63
2023-02-01T20:00:24.135Z,101895.31
2023-02-01T20:02:51.400Z,101894.56
2023-02-01T20:05:19.148Z,101897.19
2023-02-01T20:07:46.295Z,101891.03
2023-02-01T20:10:13.535Z,101897.09
2023-02-01T20:12:40.737Z,101883.09
2023-02-01T20:15:08.425Z,101887.34
2023-02-01T20:17:37.242Z,101884.81
2023-02-01T20:20:05.228Z,101884.81
2023-02-01T20:22:33.635Z,101894.41
2023-02-01T20:25:02.673Z,101888.25
2023-02-01T20:27:31.208Z,101892.56
2023-02-01T20:29:58.284Z,101894.25
2023-02-01T20:32:25.377Z,101888.16
2023-02-01T20:34:53.590Z,101895.19
2023-02-01T20:37:21.495Z,101891.66
2023-02-01T20:39:50.038Z,101892.50
2023-02-01T20:42:17.154Z,101886.41
2023-02-01T20:44:44.330Z,101896.97
2023-02-01T20:47:11.648Z,101896.09
2023-02-01T20:49:40.499Z,101897.81
2023-02-01T20:52:07.761Z,101904.78
2023-02-01T20:54:34.808Z,101907.47
2023-02-01T20:57:02.414Z,101903.97
2023-02-01T20:59:29.828Z,101904.88
2023-02-01T21:01:56.962Z,101914.50
2023-02-01T21:04:29.927Z,101913.63
2023-02-01T21:06:58.925Z,101911.00
2023-02-01T21:09:27.242Z,101917.09
2023-02-01T21:11:56.019Z,101910.94
2023-02-01T21:14:23.383Z,101916.97
2023-02-01T21:16:50.670Z,101914.31
2023-02-01T21:19:18.492Z,101915.19
2023-02-01T21:21:46.026Z,101922.91
2023-02-01T21:24:13.219Z,101914.22
2023-02-01T21:26:43.668Z,101930.78
2023-02-01T21:29:14.021Z,101926.31
2023-02-01T21:31:43.188Z,101919.41
2023-02-01T21:34:11.037Z,101930.75
2023-02-01T21:36:38.440Z,101921.16
2023-02-01T21:39:08.185Z,101930.72
2023-02-01T21:41:55.354Z,101922.03
2023-02-01T21:44:23.295Z,101930.78
2023-02-01T21:46:50.372Z,101932.59
2023-02-01T21:49:17.479Z,101935.25
2023-02-01T21:51:45.003Z,101934.31
2023-02-01T21:54:12.610Z,101929.97
2023-02-01T21:56:40.975Z,101933.47
2023-02-01T21:59:10.198Z,101930.00
2023-02-01T22:01:39.200Z,101930.88
2023-02-01T22:04:06.922Z,101940.41
2023-02-01T22:06:41.639Z,101942.03
2023-02-01T22:09:22.843Z,101944.69
2023-02-01T22:11:51.620Z,101950.75
2023-02-01T22:14:19.270Z,101934.91
2023-02-01T22:16:49.389Z,101942.75
2023-02-01T22:19:17.119Z,101946.28
2023-02-01T22:21:46.851Z,101947.19
2023-02-01T22:24:17.517Z,101948.91
2023-02-01T22:26:44.656Z,101945.38
2023-02-01T22:29:14.835Z,101963.72
2023-02-01T22:31:43.120Z,101968.06
2023-02-01T22:34:12.037Z,101966.34
2023-02-01T22:36:40.231Z,101972.47
2023-02-01T22:39:07.876Z,101972.47
2023-02-01T22:41:35.390Z,101974.25
2023-02-01T22:44:02.384Z,101974.28
2023-02-01T22:46:33.594Z,101974.31
2023-02-01T22:49:01.126Z,101968.25
2023-02-01T22:51:31.046Z,101966.38
2023-02-01T22:53:58.822Z,101962.81
2023-02-01T22:56:37.427Z,101970.72
2023-02-01T22:59:07.389Z,101974.28
2023-02-01T23:01:35.503Z,101976.94
2023-02-01T23:04:06.671Z,101975.13
2023-02-01T23:06:34.851Z,101965.53
2023-02-01T23:09:13.682Z,101968.94
2023-02-01T23:11:41.850Z,101969.63
2023-02-01T23:14:09.971Z,101961.56
2023-02-01T23:16:37.894Z,101961.44
2023-02-01T23:19:05.812Z,101965.75
2023-02-01T23:21:33.653Z,101966.69
2023-02-01T23:24:02.504Z,101972.75
2023-02-01T23:26:32.335Z,101974.50
2023-02-01T23:29:00.797Z,101975.38
2023-02-01T23:31:32.587Z,101976.31
2023-02-01T23:34:02.047Z,101976.31
2023-02-01T23:36:29.937Z,101991.19
2023-02-01T23:38:57.563Z,101985.06
2023-02-01T23:41:27.472Z,101997.31
2023-02-01T23:43:57.842Z,101988.47
2023-02-01T23:46:47.351Z,101992.78
2023-02-01T23:49:16.858Z,101990.97
2023-02-01T23:51:47.865Z,101984.78
2023-02-01T23:54:14.888Z,102001.31
2023-02-01T23:56:44.943Z,102006.53
2023-02-01T23:59:16.259Z,102002.94
